createdAt,value
2023-04-16T00:02:40.986Z,8.60
2023-04-16T00:05:44.071Z,8.90
2023-04-16T00:08:46.958Z,9.02
2023-04-16T00:11:49.878Z,7.70
2023-04-16T00:14:53.109Z,7.03
2023-04-16T00:17:56.686Z,7.27
2023-04-16T00:20:59.802Z,7.40
2023-04-16T00:24:02.679Z,7.00
2023-04-16T00:27:06.594Z,7.37
2023-04-16T00:30:10.048Z,6.35
2023-04-16T00:33:12.983Z,7.50
2023-04-16T00:36:16.157Z,7.43
2023-04-16T00:39:18.813Z,7.18
2023-04-16T00:42:21.731Z,7.00
2023-04-16T00:45:24.883Z,7.95
2023-04-16T00:48:28.393Z,7.40
2023-04-16T00:51:32.005Z,9.17
2023-04-16T00:54:35.041Z,8.05
2023-04-16T00:57:37.687Z,8.45
2023-04-16T01:00:41.791Z,7.95
2023-04-16T01:03:47.312Z,8.50
2023-04-16T01:06:51.267Z,8.63
2023-04-16T01:09:54.093Z,9.27
2023-04-16T01:12:57.235Z,10.80
2023-04-16T01:16:01.234Z,10.40
2023-04-16T01:19:04.126Z,10.13
2023-04-16T01:22:06.844Z,11.10
2023-04-16T01:25:15.636Z,9.20
2023-04-16T01:28:18.643Z,9.50
2023-04-16T01:31:21.698Z,8.38
2023-04-16T01:34:25.483Z,9.80
2023-04-16T01:37:28.616Z,10.00
2023-04-16T01:40:31.401Z,9.15
2023-04-16T01:43:34.923Z,8.80
2023-04-16T01:46:38.498Z,8.93
2023-04-16T01:49:44.135Z,8.37
2023-04-16T01:52:46.943Z,8.83
2023-04-16T01:55:50.069Z,7.55
2023-04-16T01:58:53.510Z,8.18
2023-04-16T02:01:57.129Z,7.87
2023-04-16T02:05:00.148Z,8.93
2023-04-16T02:08:02.922Z,8.50
2023-04-16T02:11:06.219Z,8.63
2023-04-16T02:14:09.687Z,8.13
2023-04-16T02:17:12.874Z,7.40
2023-04-16T02:20:16.149Z,7.33
2023-04-16T02:23:19.245Z,6.97
2023-04-16T02:26:21.984Z,6.70
2023-04-16T02:29:25.166Z,6.57
2023-04-16T02:32:27.899Z,6.40
2023-04-16T02:35:30.961Z,6.87
2023-04-16T02:38:33.668Z,6.37
2023-04-16T02:41:36.939Z,6.65
2023-04-16T02:44:39.517Z,6.10
2023-04-16T02:47:42.559Z,6.00
2023-04-16T02:50:45.500Z,6.70
2023-04-16T02:53:48.411Z,7.27
2023-04-16T02:56:50.981Z,7.28
2023-04-16T02:59:54.065Z,6.25
2023-04-16T03:02:56.733Z,7.70
2023-04-16T03:05:59.837Z,7.13
2023-04-16T03:09:02.667Z,6.63
2023-04-16T03:12:06.174Z,7.78
2023-04-16T03:15:09.148Z,6.55
2023-04-16T03:18:12.122Z,6.10
2023-04-16T03:21:14.600Z,6.63
2023-04-16T03:24:18.472Z,8.37
2023-04-16T03:27:24.110Z,8.63
2023-04-16T03:30:27.451Z,13.98
2023-04-16T03:33:30.453Z,9.60
2023-04-16T03:36:33.544Z,14.47
2023-04-16T03:39:36.113Z,10.57
2023-04-16T03:42:39.055Z,11.43
2023-04-16T03:45:46.326Z,11.75
2023-04-16T03:48:49.339Z,8.52
2023-04-16T03:51:52.033Z,7.27
2023-04-16T03:54:55.023Z,6.80
2023-04-16T03:57:58.320Z,6.35
2023-04-16T04:01:01.346Z,6.70
2023-04-16T04:04:05.920Z,12.95
2023-04-16T04:07:08.656Z,29.30
2023-04-16T04:10:12.100Z,15.50
2023-04-16T04:13:15.332Z,13.43
2023-04-16T04:16:18.900Z,10.75
2023-04-16T04:19:21.850Z,10.68
2023-04-16T04:22:24.841Z,9.50
2023-04-16T04:25:28.189Z,10.50
2023-04-16T04:28:33.427Z,10.02
2023-04-16T04:31:36.603Z,10.48
2023-04-16T04:34:39.549Z,10.52
2023-04-16T04:37:42.643Z,10.73
2023-04-16T04:40:46.986Z,9.90
2023-04-16T04:43:50.728Z,11.48
2023-04-16T04:46:53.831Z,11.40
2023-04-16T04:49:56.430Z,10.80
2023-04-16T04:52:59.445Z,13.00
2023-04-16T04:56:12.104Z,15.87
2023-04-16T04:59:16.688Z,12.45
2023-04-16T05:02:20.389Z,12.07
2023-04-16T05:05:23.602Z,11.35
2023-04-16T05:08:26.420Z,10.67
2023-04-16T05:11:30.008Z,13.23
2023-04-16T05:14:32.828Z,13.20
2023-04-16T05:17:35.903Z,13.90
2023-04-16T05:20:38.741Z,11.60
2023-04-16T05:23:41.599Z,11.20
2023-04-16T05:26:44.195Z,12.00
2023-04-16T05:29:47.027Z,9.80
2023-04-16T05:32:49.764Z,10.35
2023-04-16T05:35:52.751Z,9.88
2023-04-16T05:38:55.634Z,12.67
2023-04-16T05:41:59.233Z,9.57
2023-04-16T05:45:05.036Z,11.25
2023-04-16T05:48:12.532Z,10.30
2023-04-16T05:51:15.125Z,10.93
2023-04-16T05:54:18.394Z,10.03
2023-04-16T05:57:20.915Z,8.03
2023-04-16T06:00:24.004Z,8.50
2023-04-16T06:03:27.580Z,8.65
2023-04-16T06:06:30.327Z,8.43
2023-04-16T06:09:33.267Z,9.10
2023-04-16T06:12:36.413Z,9.00
2023-04-16T06:15:39.406Z,9.10
2023-04-16T06:18:42.516Z,8.75
2023-04-16T06:21:45.710Z,8.38
2023-04-16T06:24:48.564Z,5.87
2023-04-16T06:27:51.475Z,7.63
2023-04-16T06:30:54.157Z,8.75
2023-04-16T06:33:57.366Z,7.40
2023-04-16T06:37:00.047Z,7.68
2023-04-16T06:40:02.985Z,6.80
2023-04-16T06:43:06.166Z,7.03
2023-04-16T06:46:09.226Z,7.40
2023-04-16T06:49:12.083Z,6.32
2023-04-16T06:52:15.126Z,6.87
2023-04-16T06:55:17.822Z,6.83
2023-04-16T06:58:20.842Z,6.50
2023-04-16T07:01:23.609Z,6.60
2023-04-16T07:04:26.614Z,6.65
2023-04-16T07:07:29.295Z,7.20
2023-04-16T07:10:32.215Z,6.47
2023-04-16T07:13:34.804Z,6.40
2023-04-16T07:16:38.025Z,4.95
2023-04-16T07:19:41.183Z,6.20
2023-04-16T07:22:44.465Z,5.80
2023-04-16T07:25:47.025Z,5.80
2023-04-16T07:28:49.919Z,5.47
2023-04-16T07:31:52.573Z,6.28
2023-04-16T07:34:56.270Z,6.93
2023-04-16T07:37:59.046Z,6.47
2023-04-16T07:41:02.351Z,4.27
2023-04-16T07:44:05.103Z,6.40
2023-04-16T07:47:08.050Z,6.65
2023-04-16T07:50:10.987Z,6.03
2023-04-16T07:53:13.852Z,6.32
2023-04-16T07:56:16.656Z,5.70
2023-04-16T07:59:23.574Z,4.07
2023-04-16T08:02:27.652Z,6.22
2023-04-16T08:05:30.696Z,5.70
2023-04-16T08:08:33.271Z,6.68
2023-04-16T08:11:36.202Z,6.07
2023-04-16T08:14:39.088Z,5.40
2023-04-16T08:17:42.346Z,7.53
2023-04-16T08:20:44.958Z,5.62
2023-04-16T08:23:47.923Z,6.93
2023-04-16T08:26:50.458Z,6.97
2023-04-16T08:29:53.496Z,6.00
2023-04-16T08:32:56.340Z,6.60
2023-04-16T08:35:59.300Z,5.72
2023-04-16T08:39:02.104Z,6.70
2023-04-16T08:42:06.358Z,5.33
2023-04-16T08:45:15.981Z,6.23
2023-04-16T08:48:22.186Z,6.78
2023-04-16T08:51:27.683Z,11.75
2023-04-16T08:54:56.920Z,6.00
2023-04-16T08:58:00.903Z,6.47
2023-04-16T09:01:04.260Z,5.60
2023-04-16T09:04:07.640Z,6.30
2023-04-16T09:07:11.725Z,5.80
2023-04-16T09:10:15.522Z,6.32
2023-04-16T09:13:20.809Z,6.10
2023-04-16T09:16:25.218Z,5.63
2023-04-16T09:19:28.486Z,5.62
2023-04-16T09:22:31.244Z,5.97
2023-04-16T09:25:38.720Z,5.78
2023-04-16T09:28:42.838Z,5.63
2023-04-16T09:32:02.761Z,5.53
2023-04-16T09:35:05.762Z,8.88
2023-04-16T09:38:08.862Z,5.72
2023-04-16T09:41:11.511Z,5.18
2023-04-16T09:44:14.374Z,4.73
2023-04-16T09:47:17.335Z,3.67
2023-04-16T09:50:20.832Z,5.78
2023-04-16T09:53:28.157Z,4.62
2023-04-16T09:56:31.264Z,3.40
2023-04-16T09:59:36.537Z,4.60
2023-04-16T10:02:42.763Z,4.43
2023-04-16T10:05:46.150Z,4.47
2023-04-16T10:08:54.041Z,3.95
2023-04-16T10:11:57.345Z,4.05
2023-04-16T10:15:00.228Z,5.67
2023-04-16T10:18:04.695Z,3.77
2023-04-16T10:21:08.511Z,3.67
2023-04-16T10:24:12.929Z,3.75
2023-04-16T10:27:17.360Z,3.40
2023-04-16T10:30:21.896Z,3.00
2023-04-16T10:33:36.623Z,3.30
2023-04-16T10:36:40.356Z,3.50
2023-04-16T10:39:43.113Z,3.33
2023-04-16T10:42:55.095Z,3.87
2023-04-16T10:45:57.937Z,3.60
2023-04-16T10:49:03.199Z,3.20
2023-04-16T10:52:12.287Z,3.72
2023-04-16T10:55:18.068Z,3.42
2023-04-16T10:58:31.131Z,2.45
2023-04-16T11:01:36.180Z,3.00
2023-04-16T11:04:42.811Z,1.63
2023-04-16T11:07:49.962Z,2.72
2023-04-16T11:10:53.147Z,2.37
2023-04-16T11:13:57.233Z,2.80
2023-04-16T11:17:03.948Z,2.70
2023-04-16T11:20:19.300Z,2.77
2023-04-16T11:23:23.431Z,2.65
2023-04-16T11:26:28.670Z,1.90
2023-04-16T11:29:31.506Z,2.30
2023-04-16T11:32:36.202Z,2.63
2023-04-16T11:35:40.077Z,2.33
2023-04-16T11:38:43.311Z,2.80
2023-04-16T11:41:47.680Z,2.22
2023-04-16T11:44:57.888Z,2.67
2023-04-16T11:48:00.735Z,2.80
2023-04-16T11:51:03.771Z,2.53
2023-04-16T11:54:08.454Z,2.40
2023-04-16T11:57:13.550Z,2.50
2023-04-16T12:00:16.765Z,2.50
2023-04-16T12:03:37.600Z,2.47
2023-04-16T12:06:40.296Z,2.40
2023-04-16T12:09:44.128Z,2.30
2023-04-16T12:12:47.198Z,2.60
2023-04-16T12:15:52.093Z,2.70
2023-04-16T12:19:04.713Z,2.70
2023-04-16T12:22:07.585Z,3.00
2023-04-16T12:25:15.667Z,2.17
2023-04-16T12:28:47.954Z,2.95
2023-04-16T12:31:52.120Z,3.47
2023-04-16T12:34:55.031Z,3.43
2023-04-16T12:37:57.910Z,3.20
2023-04-16T12:41:02.401Z,2.92
2023-04-16T12:44:12.086Z,3.45
2023-04-16T12:47:15.299Z,3.85
2023-04-16T12:50:18.571Z,2.70
2023-04-16T12:53:21.453Z,3.10
2023-04-16T12:56:24.081Z,3.70
2023-04-16T12:59:27.002Z,3.08
2023-04-16T13:02:29.769Z,3.42
2023-04-16T13:05:32.709Z,3.57
2023-04-16T13:08:36.275Z,3.20
2023-04-16T13:11:39.262Z,3.08
2023-04-16T13:14:43.347Z,3.00
2023-04-16T13:17:48.124Z,3.30
2023-04-16T13:20:51.033Z,3.30
2023-04-16T13:23:54.597Z,3.00
2023-04-16T13:26:57.573Z,3.20
2023-04-16T13:30:00.751Z,3.33
2023-04-16T13:33:03.663Z,3.37
2023-04-16T13:36:07.317Z,2.70
2023-04-16T13:39:13.871Z,3.10
2023-04-16T13:42:18.186Z,2.83
2023-04-16T13:45:21.177Z,3.00
2023-04-16T13:48:24.110Z,3.15
2023-04-16T13:51:27.861Z,3.13
2023-04-16T13:54:31.151Z,2.80
2023-04-16T13:57:34.473Z,2.42
2023-04-16T14:00:38.394Z,2.97
2023-04-16T14:03:42.546Z,2.25
2023-04-16T14:06:45.920Z,3.00
2023-04-16T14:09:49.086Z,2.70
2023-04-16T14:12:52.358Z,3.10
2023-04-16T14:15:57.164Z,2.97
2023-04-16T14:19:00.201Z,3.00
2023-04-16T14:22:03.852Z,3.10
2023-04-16T14:25:07.341Z,3.17
2023-04-16T14:28:12.601Z,3.10
2023-04-16T14:31:19.283Z,2.87
2023-04-16T14:34:22.429Z,3.53
2023-04-16T14:37:26.420Z,2.97
2023-04-16T14:40:29.617Z,3.07
2023-04-16T14:43:32.594Z,2.80
2023-04-16T14:46:36.365Z,3.50
2023-04-16T14:49:39.310Z,3.33
2023-04-16T14:52:42.415Z,3.37
2023-04-16T14:55:45.250Z,3.70
2023-04-16T14:58:48.879Z,3.20
2023-04-16T15:01:52.059Z,3.70
2023-04-16T15:04:55.008Z,3.35
2023-04-16T15:07:58.212Z,3.03
2023-04-16T15:11:01.711Z,3.10
2023-04-16T15:14:04.478Z,3.30
2023-04-16T15:17:07.884Z,3.25
2023-04-16T15:20:11.316Z,4.07
2023-04-16T15:23:14.666Z,3.20
2023-04-16T15:26:18.158Z,3.63
2023-04-16T15:29:21.702Z,3.28
2023-04-16T15:32:25.936Z,3.50
2023-04-16T15:35:29.314Z,3.40
2023-04-16T15:38:32.437Z,3.90
2023-04-16T15:41:57.558Z,3.83
2023-04-16T15:45:04.241Z,4.00
2023-04-16T15:48:12.889Z,4.07
2023-04-16T15:51:17.124Z,4.32
2023-04-16T15:54:20.719Z,4.30
2023-04-16T15:57:23.718Z,4.60
2023-04-16T16:00:28.448Z,4.18
2023-04-16T16:03:34.320Z,3.22
2023-04-16T16:06:38.338Z,3.80
2023-04-16T16:09:42.396Z,3.37
2023-04-16T16:12:45.583Z,3.60
2023-04-16T16:15:50.920Z,3.40
2023-04-16T16:18:54.474Z,3.28
2023-04-16T16:21:58.311Z,3.10
2023-04-16T16:25:02.231Z,3.70
2023-04-16T16:28:06.842Z,3.70
2023-04-16T16:31:10.336Z,3.53
2023-04-16T16:34:20.463Z,3.20
2023-04-16T16:37:24.542Z,2.40
2023-04-16T16:40:30.240Z,2.50
2023-04-16T16:43:33.801Z,2.50
2023-04-16T16:46:37.887Z,2.20
2023-04-16T16:49:41.659Z,2.40
2023-04-16T16:52:45.734Z,2.35
2023-04-16T16:55:51.754Z,2.30
2023-04-16T16:58:55.951Z,3.17
2023-04-16T17:01:59.239Z,2.12
2023-04-16T17:05:03.352Z,3.10
2023-04-16T17:08:07.557Z,2.50
2023-04-16T17:11:13.429Z,2.10
2023-04-16T17:14:16.986Z,2.53
2023-04-16T17:17:21.584Z,2.35
2023-04-16T17:20:25.079Z,2.25
2023-04-16T17:23:28.584Z,3.42
2023-04-16T17:26:32.704Z,3.90
2023-04-16T17:29:36.532Z,2.10
2023-04-16T17:32:40.189Z,1.90
2023-04-16T17:35:44.524Z,2.00
2023-04-16T17:38:48.077Z,2.30
2023-04-16T17:41:55.347Z,2.30
2023-04-16T17:44:58.876Z,2.30
2023-04-16T17:48:02.717Z,2.30
2023-04-16T17:51:13.049Z,2.28
2023-04-16T17:54:16.487Z,2.30
2023-04-16T17:57:21.018Z,2.50
2023-04-16T18:00:24.813Z,2.00
2023-04-16T18:03:28.350Z,2.00
2023-04-16T18:06:32.241Z,2.10
2023-04-16T18:09:37.006Z,2.22
2023-04-16T18:12:40.697Z,3.73
2023-04-16T18:15:44.590Z,5.27
2023-04-16T18:18:49.670Z,4.25
2023-04-16T18:21:54.209Z,4.53
2023-04-16T18:24:58.320Z,5.00
2023-04-16T18:28:04.369Z,5.20
2023-04-16T18:31:08.412Z,5.47
2023-04-16T18:34:12.558Z,8.45
2023-04-16T18:37:16.803Z,10.32
2023-04-16T18:40:20.125Z,6.12
2023-04-16T18:43:27.919Z,4.47
2023-04-16T18:46:31.380Z,3.70
2023-04-16T18:49:37.466Z,3.85
2023-04-16T18:52:41.190Z,3.35
2023-04-16T18:55:46.979Z,3.22
2023-04-16T18:58:52.288Z,2.97
2023-04-16T19:01:55.702Z,2.80
2023-04-16T19:05:00.213Z,2.90
2023-04-16T19:08:03.632Z,5.32
2023-04-16T19:11:07.334Z,4.60
2023-04-16T19:14:11.508Z,5.40
2023-04-16T19:17:16.188Z,4.87
2023-04-16T19:20:21.538Z,4.70
2023-04-16T19:23:25.830Z,4.32
2023-04-16T19:26:28.889Z,4.18
2023-04-16T19:29:35.997Z,4.17
2023-04-16T19:32:39.651Z,4.37
2023-04-16T19:35:44.007Z,5.25
2023-04-16T19:38:48.541Z,5.07
2023-04-16T19:41:52.030Z,4.60
2023-04-16T19:44:55.586Z,4.87
2023-04-16T19:47:59.157Z,4.87
2023-04-16T19:51:06.553Z,5.85
2023-04-16T19:54:10.007Z,6.60
2023-04-16T19:57:13.307Z,7.03
2023-04-16T20:00:17.722Z,7.20
2023-04-16T20:03:21.367Z,6.80
2023-04-16T20:06:25.887Z,6.47
2023-04-16T20:09:29.929Z,6.55
2023-04-16T20:12:35.097Z,6.78
2023-04-16T20:15:38.973Z,7.13
2023-04-16T20:18:42.863Z,6.27
2023-04-16T20:21:47.026Z,7.07
2023-04-16T20:24:52.653Z,6.75
2023-04-16T20:27:55.883Z,7.32
2023-04-16T20:30:59.203Z,7.23
2023-04-16T20:34:02.382Z,7.93
2023-04-16T20:37:05.583Z,7.43
2023-04-16T20:40:10.046Z,5.95
2023-04-16T20:43:17.104Z,6.85
2023-04-16T20:46:24.502Z,6.63
2023-04-16T20:49:27.346Z,6.50
2023-04-16T20:52:30.310Z,6.80
2023-04-16T20:55:32.957Z,6.62
2023-04-16T20:58:36.138Z,6.95
2023-04-16T21:01:38.647Z,6.33
2023-04-16T21:04:41.876Z,6.13
2023-04-16T21:07:44.542Z,6.57
2023-04-16T21:10:47.624Z,6.80
2023-04-16T21:13:50.337Z,6.30
2023-04-16T21:16:53.410Z,7.07
2023-04-16T21:19:56.017Z,6.80
2023-04-16T21:22:59.276Z,6.93
2023-04-16T21:26:01.873Z,7.20
2023-04-16T21:29:04.743Z,7.00
2023-04-16T21:32:07.383Z,7.00
2023-04-16T21:35:10.558Z,6.77
2023-04-16T21:38:13.140Z,6.60
2023-04-16T21:41:16.770Z,8.23
2023-04-16T21:44:19.389Z,7.70
2023-04-16T21:47:22.331Z,7.10
2023-04-16T21:50:25.013Z,8.00
2023-04-16T21:53:32.203Z,7.93
2023-04-16T21:56:34.939Z,8.18
2023-04-16T21:59:38.606Z,7.10
2023-04-16T22:02:42.715Z,6.20
2023-04-16T22:05:46.167Z,6.40
2023-04-16T22:08:50.106Z,7.43
2023-04-16T22:11:53.291Z,7.15
2023-04-16T22:15:02.285Z,6.97
2023-04-16T22:18:06.594Z,8.83
2023-04-16T22:21:09.239Z,7.30
2023-04-16T22:24:12.370Z,7.62
2023-04-16T22:27:14.966Z,7.45
2023-04-16T22:30:18.140Z,7.43
2023-04-16T22:33:20.955Z,8.43
2023-04-16T22:36:23.924Z,7.47
2023-04-16T22:39:28.669Z,8.00
2023-04-16T22:42:31.798Z,8.32
2023-04-16T22:45:34.775Z,8.40
2023-04-16T22:48:38.858Z,9.73
2023-04-16T22:51:41.367Z,7.97
2023-04-16T22:54:44.322Z,8.93
2023-04-16T22:57:47.659Z,8.00
2023-04-16T23:00:52.125Z,7.82
2023-04-16T23:03:54.883Z,8.20
2023-04-16T23:06:57.923Z,8.10
2023-04-16T23:10:00.766Z,7.30
2023-04-16T23:13:03.818Z,7.60
2023-04-16T23:16:07.094Z,8.13
2023-04-16T23:19:15.079Z,8.53
2023-04-16T23:22:17.733Z,7.60
2023-04-16T23:25:22.572Z,7.82
2023-04-16T23:28:25.338Z,8.00
2023-04-16T23:31:29.034Z,8.18
2023-04-16T23:34:31.686Z,8.10
2023-04-16T23:37:34.774Z,8.90
2023-04-16T23:40:37.347Z,8.43
2023-04-16T23:43:40.945Z,8.70
2023-04-16T23:46:43.648Z,8.48
2023-04-16T23:49:47.446Z,8.40
2023-04-16T23:52:50.115Z,8.13
2023-04-16T23:55:52.974Z,8.68
2023-04-16T23:58:56.264Z,8.15
